createdAt,value
2022-11-28T00:00:39.069Z,45.94
2022-11-28T00:01:39.066Z,45.37
2022-11-28T00:02:39.224Z,45.51
2022-11-28T00:03:39.174Z,45.7
2022-11-28T00:04:39.163Z,45.31
2022-11-28T00:05:43.017Z,45.23
2022-11-28T00:06:39.065Z,45.33
2022-11-28T00:07:39.136Z,45.26
2022-11-28T00:08:39.087Z,45.33
2022-11-28T00:09:39.065Z,44.61
2022-11-28T00:10:39.064Z,44.81
2022-11-28T00:11:39.061Z,45.83
2022-11-28T00:12:39.096Z,46.39
2022-11-28T00:13:39.089Z,45.77
2022-11-28T00:14:39.187Z,45.51
2022-11-28T00:15:39.147Z,45.79
2022-11-28T00:16:39.067Z,45.42
2022-11-28T00:17:39.074Z,44.98
2022-11-28T00:18:39.085Z,45.4
2022-11-28T00:19:39.081Z,45.81
2022-11-28T00:20:39.065Z,46.39
2022-11-28T00:21:39.068Z,45.77
2022-11-28T00:22:39.065Z,45.77
2022-11-28T00:23:39.090Z,46.08
2022-11-28T00:24:39.076Z,46.04
2022-11-28T00:25:39.065Z,45.79
2022-11-28T00:26:39.071Z,46.28
2022-11-28T00:27:39.086Z,46.11
2022-11-28T00:28:39.087Z,45.55
2022-11-28T00:29:39.066Z,45.55
2022-11-28T00:30:39.083Z,45.66
2022-11-28T00:31:39.105Z,45.37
2022-11-28T00:32:39.068Z,45.76
2022-11-28T00:33:39.087Z,45.76
2022-11-28T00:34:39.254Z,45.84
2022-11-28T00:35:39.068Z,44.97
2022-11-28T00:36:39.067Z,45.12
2022-11-28T00:37:39.086Z,44.56
2022-11-28T00:38:39.121Z,44.74
2022-11-28T00:39:39.075Z,44.63
2022-11-28T00:40:39.065Z,45.46
2022-11-28T00:41:39.066Z,45.6
2022-11-28T00:42:39.088Z,45.65
2022-11-28T00:43:39.080Z,45.66
2022-11-28T00:44:39.084Z,45.79
2022-11-28T00:45:39.125Z,45.72
2022-11-28T00:46:39.067Z,45.5
2022-11-28T00:47:39.068Z,44.78
2022-11-28T00:48:39.081Z,45.93
2022-11-28T00:49:39.065Z,45.93
2022-11-28T00:50:39.065Z,44.77
2022-11-28T00:51:39.060Z,45.15
2022-11-28T00:52:39.065Z,45.62
2022-11-28T00:53:39.084Z,45.26
2022-11-28T00:54:39.162Z,45.46
2022-11-28T00:55:39.061Z,46.23
2022-11-28T00:56:39.063Z,45.92
2022-11-28T00:57:39.163Z,45.54
2022-11-28T00:58:39.070Z,45.82
2022-11-28T00:59:39.059Z,45.46
2022-11-28T01:00:39.199Z,45.23
2022-11-28T01:01:39.124Z,45.14
2022-11-28T01:02:39.111Z,45.28
2022-11-28T01:03:39.084Z,45.51
2022-11-28T01:04:39.178Z,45.23
2022-11-28T01:05:39.060Z,45.88
2022-11-28T01:06:39.064Z,45.82
2022-11-28T01:07:39.107Z,45.92
2022-11-28T01:08:39.088Z,45.7
2022-11-28T01:09:39.065Z,45.5
2022-11-28T01:10:39.058Z,45.36
2022-11-28T01:11:39.073Z,45.8
2022-11-28T01:12:39.073Z,44.85
2022-11-28T01:13:39.081Z,45.56
2022-11-28T01:14:39.143Z,45.36
2022-11-28T01:15:39.061Z,44.65
2022-11-28T01:16:39.162Z,45.54
2022-11-28T01:17:39.065Z,45.66
2022-11-28T01:18:39.086Z,45.88
2022-11-28T01:19:39.085Z,46.12
2022-11-28T01:20:39.070Z,46.36
2022-11-28T01:21:39.066Z,45.46
2022-11-28T01:22:39.069Z,45.89
2022-11-28T01:23:39.085Z,45.75
2022-11-28T01:24:39.212Z,45.66
2022-11-28T01:25:39.071Z,46.32
2022-11-28T01:26:39.061Z,45.73
2022-11-28T01:27:39.078Z,45.94
2022-11-28T01:28:39.080Z,46.28
2022-11-28T01:29:39.071Z,46.06
2022-11-28T01:30:39.075Z,46.11
2022-11-28T01:31:39.161Z,45.48
2022-11-28T01:32:39.072Z,46.39
2022-11-28T01:33:39.080Z,45.95
2022-11-28T01:34:39.201Z,46.23
2022-11-28T01:35:39.063Z,46.09
2022-11-28T01:36:39.064Z,46.23
2022-11-28T01:37:39.066Z,46.67
2022-11-28T01:38:39.077Z,46.63
2022-11-28T01:39:39.067Z,46.58
2022-11-28T01:40:39.066Z,46.16
2022-11-28T01:41:39.073Z,45.02
2022-11-28T01:42:39.066Z,45.53
2022-11-28T01:43:39.086Z,46.46
2022-11-28T01:44:39.174Z,47.09
2022-11-28T01:45:39.067Z,46.2
2022-11-28T01:46:39.090Z,45.68
2022-11-28T01:47:39.067Z,46.49
2022-11-28T01:48:39.085Z,47.4
2022-11-28T01:49:39.065Z,46.4
2022-11-28T01:50:39.067Z,46.28
2022-11-28T01:51:39.061Z,46.55
2022-11-28T01:52:39.069Z,46.27
2022-11-28T01:53:39.083Z,46.17
2022-11-28T01:54:39.124Z,46.13
2022-11-28T01:55:39.063Z,46.43
2022-11-28T01:56:39.058Z,46.43
2022-11-28T01:57:39.066Z,46.55
2022-11-28T01:58:39.088Z,45.73
2022-11-28T01:59:39.062Z,45.73
2022-11-28T02:00:39.172Z,46.49
2022-11-28T02:01:39.111Z,46.46
2022-11-28T02:02:39.121Z,47.17
2022-11-28T02:03:39.085Z,46.42
2022-11-28T02:04:39.110Z,45.84
2022-11-28T02:05:39.063Z,46.72
2022-11-28T02:06:39.060Z,46.14
2022-11-28T02:07:39.115Z,46.01
2022-11-28T02:08:39.086Z,45.93
2022-11-28T02:09:39.062Z,45.78
2022-11-28T02:10:39.130Z,45.65
2022-11-28T02:11:39.058Z,46.81
2022-11-28T02:12:39.058Z,46.46
2022-11-28T02:13:39.097Z,46.22
2022-11-28T02:14:39.144Z,46.33
2022-11-28T02:15:39.066Z,46.73
2022-11-28T02:16:39.139Z,46.27
2022-11-28T02:17:39.066Z,45.76
2022-11-28T02:18:39.070Z,46.65
2022-11-28T02:19:39.061Z,46.38
2022-11-28T02:20:39.061Z,46.97
2022-11-28T02:21:39.057Z,46.54
2022-11-28T02:22:39.066Z,46.14
2022-11-28T02:23:39.154Z,46.04
2022-11-28T02:24:39.313Z,45.53
2022-11-28T02:25:39.072Z,46.82
2022-11-28T02:26:39.067Z,46.71
2022-11-28T02:27:39.063Z,45.99
2022-11-28T02:28:39.084Z,45.97
2022-11-28T02:29:39.161Z,45.9
2022-11-28T02:30:39.075Z,46.1
2022-11-28T02:31:39.196Z,46.22
2022-11-28T02:32:39.065Z,40.52
2022-11-28T02:33:39.073Z,46.53
2022-11-28T02:34:42.063Z,45.75
2022-11-28T02:35:39.064Z,45.82
2022-11-28T02:36:39.064Z,46.8
2022-11-28T02:37:39.066Z,45.55
2022-11-28T02:38:39.072Z,45.61
2022-11-28T02:39:39.078Z,45.9
2022-11-28T02:40:39.068Z,47.31
2022-11-28T02:41:39.069Z,47.56
2022-11-28T02:42:39.065Z,46.54
2022-11-28T02:43:39.083Z,45.9
2022-11-28T02:44:39.098Z,46.9
2022-11-28T02:45:39.064Z,46.48
2022-11-28T02:46:39.107Z,46.48
2022-11-28T02:47:39.067Z,46.27
2022-11-28T02:48:39.067Z,46.51
2022-11-28T02:49:39.076Z,47.36
2022-11-28T02:50:39.062Z,47.36
2022-11-28T02:51:39.055Z,46.56
2022-11-28T02:52:39.078Z,46.73
2022-11-28T02:53:39.063Z,46.78
2022-11-28T02:54:39.175Z,46.87
2022-11-28T02:55:39.063Z,47.54
2022-11-28T02:56:39.063Z,47.59
2022-11-28T02:57:39.093Z,48.16
2022-11-28T02:58:39.257Z,48.51
2022-11-28T02:59:39.083Z,47.44
2022-11-28T03:00:39.162Z,47.12
2022-11-28T03:01:39.131Z,46.7
2022-11-28T03:02:39.060Z,47.51
2022-11-28T03:03:39.074Z,47.39
2022-11-28T03:04:39.076Z,46.93
2022-11-28T03:05:39.051Z,47.05
2022-11-28T03:06:39.066Z,46.8
2022-11-28T03:07:39.163Z,46.54
2022-11-28T03:08:39.051Z,46.85
2022-11-28T03:09:39.078Z,46.34
2022-11-28T03:10:39.056Z,46.97
2022-11-28T03:11:39.058Z,46.87
2022-11-28T03:12:39.062Z,46.87
2022-11-28T03:13:39.074Z,46.87
2022-11-28T03:14:39.224Z,46.62
2022-11-28T03:15:39.066Z,45.96
2022-11-28T03:16:39.219Z,45.83
2022-11-28T03:17:39.059Z,45.83
2022-11-28T03:18:39.058Z,46.66
2022-11-28T03:19:39.079Z,46.7
2022-11-28T03:20:39.055Z,46.37
2022-11-28T03:21:39.055Z,46.53
2022-11-28T03:22:39.054Z,48.02
2022-11-28T03:23:39.056Z,46.66
2022-11-28T03:24:39.150Z,46.46
2022-11-28T03:25:39.055Z,46.46
2022-11-28T03:26:39.049Z,47.02
2022-11-28T03:27:39.056Z,47.21
2022-11-28T03:28:43.439Z,46.19
2022-11-28T03:29:39.080Z,45.95
2022-11-28T03:30:39.055Z,46.51
2022-11-28T03:31:39.087Z,46.13
2022-11-28T03:32:39.064Z,46.71
2022-11-28T03:33:39.057Z,47.35
2022-11-28T03:34:39.070Z,46.12
2022-11-28T03:35:39.052Z,45.81
2022-11-28T03:36:39.060Z,44.95
2022-11-28T03:37:39.062Z,44.68
2022-11-28T03:38:39.050Z,45.34
2022-11-28T03:39:39.078Z,44.81
2022-11-28T03:40:39.055Z,44.78
2022-11-28T03:41:39.067Z,45.23
2022-11-28T03:42:39.055Z,45.23
2022-11-28T03:43:39.072Z,44.4
2022-11-28T03:44:39.071Z,45.23
2022-11-28T03:45:39.069Z,45.23
2022-11-28T03:46:39.125Z,45.78
2022-11-28T03:47:39.060Z,45.57
2022-11-28T03:48:39.066Z,45.36
2022-11-28T03:49:39.069Z,46.53
2022-11-28T03:50:39.066Z,46.04
2022-11-28T03:51:39.067Z,46.15
2022-11-28T03:52:39.071Z,45.59
2022-11-28T03:53:39.069Z,45.76
2022-11-28T03:54:39.076Z,45.29
2022-11-28T03:55:39.139Z,44.75
2022-11-28T03:56:39.095Z,43.8
2022-11-28T03:57:39.084Z,45.19
2022-11-28T03:58:39.064Z,45.46
2022-11-28T03:59:39.082Z,45.01
2022-11-28T04:00:39.058Z,45.77
2022-11-28T04:01:39.120Z,46.51
2022-11-28T04:02:39.179Z,46.51
2022-11-28T04:03:39.063Z,45
2022-11-28T04:04:39.082Z,45.9
2022-11-28T04:05:39.067Z,45.13
2022-11-28T04:06:39.067Z,45.79
2022-11-28T04:07:39.153Z,46.31
2022-11-28T04:08:39.062Z,45.28
2022-11-28T04:09:39.080Z,46.28
2022-11-28T04:10:39.061Z,46.84
2022-11-28T04:11:39.055Z,46.23
2022-11-28T04:12:39.061Z,45.71
2022-11-28T04:13:39.061Z,45.37
2022-11-28T04:14:39.073Z,46.87
2022-11-28T04:15:39.096Z,46.59
2022-11-28T04:16:39.230Z,45.83
2022-11-28T04:17:39.064Z,46.57
2022-11-28T04:18:39.064Z,46
2022-11-28T04:19:39.081Z,46.03
2022-11-28T04:20:39.072Z,45.22
2022-11-28T04:21:39.056Z,45.22
2022-11-28T04:22:39.071Z,45.35
2022-11-28T04:23:39.060Z,44.89
2022-11-28T04:24:39.079Z,45.53
2022-11-28T04:25:39.050Z,46.07
2022-11-28T04:26:39.054Z,46.45
2022-11-28T04:27:39.064Z,47.39
2022-11-28T04:28:39.051Z,46.12
2022-11-28T04:29:39.075Z,46.34
2022-11-28T04:30:39.050Z,46.58
2022-11-28T04:31:39.083Z,46.36
2022-11-28T04:32:39.060Z,46.35
2022-11-28T04:33:39.140Z,46.35
2022-11-28T04:34:39.069Z,45.28
2022-11-28T04:35:39.052Z,44.73
2022-11-28T04:36:39.109Z,45.64
2022-11-28T04:37:39.055Z,46.06
2022-11-28T04:38:39.049Z,46.47
2022-11-28T04:39:39.077Z,46.27
2022-11-28T04:40:39.053Z,46.52
2022-11-28T04:41:39.059Z,46.92
2022-11-28T04:42:39.054Z,45.48
2022-11-28T04:43:39.091Z,45.93
2022-11-28T04:44:39.082Z,46.1
2022-11-28T04:45:39.123Z,45.86
2022-11-28T04:46:39.065Z,46.36
2022-11-28T04:47:39.062Z,45.74
2022-11-28T04:48:39.064Z,45.09
2022-11-28T04:49:39.070Z,45.09
2022-11-28T04:50:39.066Z,44.69
2022-11-28T04:51:39.067Z,45.46
2022-11-28T04:52:39.060Z,45.12
2022-11-28T04:53:39.062Z,45.11
2022-11-28T04:54:39.081Z,46.13
2022-11-28T04:55:39.050Z,46.25
2022-11-28T04:56:39.061Z,46.71
2022-11-28T04:57:39.072Z,46.11
2022-11-28T04:58:39.061Z,46.32
2022-11-28T04:59:39.093Z,45.31
2022-11-28T05:00:39.100Z,45.5
2022-11-28T05:01:39.122Z,45.47
2022-11-28T05:02:39.136Z,44.97
2022-11-28T05:03:42.419Z,45.17
2022-11-28T05:04:39.069Z,44.82
2022-11-28T05:05:39.071Z,44.88
2022-11-28T05:06:39.054Z,44.76
2022-11-28T05:07:39.132Z,44.02
2022-11-28T05:08:39.059Z,44.45
2022-11-28T05:09:39.073Z,44.91
2022-11-28T05:10:39.061Z,44.82
2022-11-28T05:11:39.064Z,45.43
2022-11-28T05:12:39.068Z,45.55
2022-11-28T05:13:39.065Z,45.55
2022-11-28T05:14:39.185Z,45.49
2022-11-28T05:15:39.062Z,44.39
2022-11-28T05:16:39.134Z,43.9
2022-11-28T05:17:41.965Z,43.92
2022-11-28T05:18:39.057Z,45.17
2022-11-28T05:19:39.084Z,45.17
2022-11-28T05:20:39.071Z,44.92
2022-11-28T05:21:39.055Z,45.49
2022-11-28T05:22:39.068Z,46.48
2022-11-28T05:23:39.065Z,45.87
2022-11-28T05:24:39.083Z,46.64
2022-11-28T05:25:39.075Z,45.09
2022-11-28T05:26:39.054Z,44.99
2022-11-28T05:27:39.062Z,44.99
2022-11-28T05:28:39.057Z,45
2022-11-28T05:29:39.088Z,45.17
2022-11-28T05:30:39.052Z,44.8
2022-11-28T05:31:39.113Z,45.58
2022-11-28T05:32:39.062Z,44.04
2022-11-28T05:33:39.050Z,44.04
2022-11-28T05:34:39.253Z,44.5
2022-11-28T05:35:39.051Z,45.2
2022-11-28T05:36:39.108Z,44.6
2022-11-28T05:37:39.052Z,44.06
2022-11-28T05:38:39.060Z,44.73
2022-11-28T05:39:39.084Z,42.81
2022-11-28T05:40:39.076Z,42.79
2022-11-28T05:41:39.061Z,44.18
2022-11-28T05:42:39.057Z,44.81
2022-11-28T05:43:39.080Z,45.69
2022-11-28T05:44:39.070Z,44.71
2022-11-28T05:45:39.103Z,43.8
2022-11-28T05:46:39.054Z,44.37
2022-11-28T05:47:39.056Z,45.58
2022-11-28T05:48:39.060Z,44.4
2022-11-28T05:49:39.065Z,45.48
2022-11-28T05:50:40.138Z,45.26
2022-11-28T05:51:39.056Z,45.21
2022-11-28T05:52:39.059Z,44.2
2022-11-28T05:53:39.063Z,44.08
2022-11-28T05:54:39.065Z,44.53
2022-11-28T05:55:39.076Z,45.23
2022-11-28T05:56:42.353Z,44.77
2022-11-28T05:57:39.069Z,44.48
2022-11-28T05:58:39.085Z,44.73
2022-11-28T05:59:39.082Z,45.24
2022-11-28T06:00:39.091Z,44.4
2022-11-28T06:01:39.174Z,45.15
2022-11-28T06:02:39.153Z,45.45
2022-11-28T06:03:39.063Z,44.5
2022-11-28T06:04:39.143Z,44.64
2022-11-28T06:05:42.622Z,43.98
2022-11-28T06:06:39.073Z,41.78
2022-11-28T06:07:39.129Z,44.42
2022-11-28T06:08:39.057Z,44.42
2022-11-28T06:09:39.087Z,43.52
2022-11-28T06:10:39.065Z,44.17
2022-11-28T06:11:39.054Z,44.17
2022-11-28T06:12:39.065Z,44.39
2022-11-28T06:13:39.060Z,44.07
2022-11-28T06:14:39.069Z,42.99
2022-11-28T06:15:39.058Z,42.7
2022-11-28T06:16:39.277Z,42.8
2022-11-28T06:17:39.061Z,44.02
2022-11-28T06:18:39.050Z,44.49
2022-11-28T06:19:39.081Z,43.69
2022-11-28T06:20:39.056Z,44.57
2022-11-28T06:21:39.059Z,44.03
2022-11-28T06:22:39.065Z,44.23
2022-11-28T06:23:39.054Z,43.98
2022-11-28T06:24:39.265Z,43.16
2022-11-28T06:25:39.052Z,42.59
2022-11-28T06:26:39.079Z,42.97
2022-11-28T06:27:39.067Z,43.03
2022-11-28T06:28:39.065Z,42.3
2022-11-28T06:29:39.081Z,42.96
2022-11-28T06:30:39.056Z,42.61
2022-11-28T06:31:39.096Z,43.88
2022-11-28T06:32:39.067Z,44.25
2022-11-28T06:33:39.056Z,43.03
2022-11-28T06:34:39.083Z,43.28
2022-11-28T06:35:39.064Z,43.59
2022-11-28T06:36:39.071Z,43.29
2022-11-28T06:37:39.060Z,43.12
2022-11-28T06:38:39.067Z,42.64
2022-11-28T06:39:39.080Z,44.22
2022-11-28T06:40:39.051Z,44.49
2022-11-28T06:41:39.054Z,44.48
2022-11-28T06:42:39.058Z,44.49
2022-11-28T06:43:39.065Z,44.4
2022-11-28T06:44:39.096Z,43.63
2022-11-28T06:45:39.103Z,43.84
2022-11-28T06:46:39.064Z,43.84
2022-11-28T06:47:39.051Z,43.68
2022-11-28T06:48:39.062Z,43.92
2022-11-28T06:49:39.068Z,43.98
2022-11-28T06:50:39.050Z,43.98
2022-11-28T06:51:39.080Z,42.64
2022-11-28T06:52:39.048Z,43.67
2022-11-28T06:53:39.066Z,43.67
2022-11-28T06:54:39.066Z,43.31
2022-11-28T06:55:39.049Z,42.92
2022-11-28T06:56:39.057Z,43.17
2022-11-28T06:57:39.050Z,44.56
2022-11-28T06:58:39.063Z,43.19
2022-11-28T06:59:39.080Z,42.31
2022-11-28T07:00:39.068Z,42.78
2022-11-28T07:01:39.136Z,43.11
2022-11-28T07:02:39.138Z,41.99
2022-11-28T07:03:39.060Z,42.09
2022-11-28T07:04:39.072Z,43.18
2022-11-28T07:05:39.085Z,43.18
2022-11-28T07:06:39.056Z,42.07
2022-11-28T07:07:53.224Z,43.39
2022-11-28T07:08:39.061Z,42.33
2022-11-28T07:09:39.069Z,42.6
2022-11-28T07:10:39.063Z,42.47
2022-11-28T07:11:39.057Z,44
2022-11-28T07:12:39.067Z,42.81
2022-11-28T07:13:39.056Z,42.46
2022-11-28T07:14:39.082Z,43.2
2022-11-28T07:15:39.062Z,43.9
2022-11-28T07:16:39.129Z,43.64
2022-11-28T07:17:39.061Z,42.34
2022-11-28T07:18:39.066Z,43.05
2022-11-28T07:19:39.073Z,41.79
2022-11-28T07:20:39.062Z,42.88
2022-11-28T07:21:39.079Z,43.19
2022-11-28T07:22:39.065Z,41.96
2022-11-28T07:23:39.061Z,42.88
2022-11-28T07:24:39.082Z,43.16
2022-11-28T07:25:39.065Z,42.94
2022-11-28T07:26:39.070Z,42.67
2022-11-28T07:27:39.061Z,42.67
2022-11-28T07:28:39.066Z,42
2022-11-28T07:29:39.074Z,42.39
2022-11-28T07:30:39.057Z,42.96
2022-11-28T07:31:39.082Z,43.04
2022-11-28T07:32:39.057Z,43.04
2022-11-28T07:33:39.063Z,42.42
2022-11-28T07:34:39.080Z,42.72
2022-11-28T07:35:39.070Z,43.55
2022-11-28T07:36:39.062Z,42.59
2022-11-28T07:37:39.060Z,41.75
2022-11-28T07:38:39.058Z,42.11
2022-11-28T07:39:39.070Z,42.09
2022-11-28T07:40:39.058Z,42.68
2022-11-28T07:41:39.054Z,43.56
2022-11-28T07:42:39.070Z,42.81
2022-11-28T07:43:39.053Z,41.99
2022-11-28T07:44:39.069Z,43.18
2022-11-28T07:45:59.577Z,42.81
2022-11-28T07:46:39.099Z,42.38
2022-11-28T07:47:39.064Z,41.65
2022-11-28T07:48:39.062Z,42.05
2022-11-28T07:49:39.090Z,42.3
2022-11-28T07:50:39.055Z,42.77
2022-11-28T07:51:39.056Z,42.42
2022-11-28T07:52:39.055Z,43.32
2022-11-28T07:53:39.074Z,43.65
2022-11-28T07:54:39.085Z,42.6
2022-11-28T07:55:39.060Z,41.74
2022-11-28T07:57:10.823Z,41.74
2022-11-28T07:57:39.087Z,41.86
2022-11-28T07:58:39.059Z,41.17
2022-11-28T07:59:39.092Z,41.58
2022-11-28T08:00:39.061Z,41.5
2022-11-28T08:01:39.137Z,41.96
2022-11-28T08:02:39.053Z,43.17
2022-11-28T08:03:39.064Z,42.67
2022-11-28T08:04:42.616Z,42.65
2022-11-28T08:05:39.056Z,42.27
2022-11-28T08:06:39.058Z,42.72
2022-11-28T08:07:39.124Z,42.72
2022-11-28T08:08:39.048Z,41.62
2022-11-28T08:09:39.092Z,41.37
2022-11-28T08:10:39.061Z,41.07
2022-11-28T08:11:39.055Z,40.9
2022-11-28T08:12:39.048Z,41.21
2022-11-28T08:13:39.053Z,41.28
2022-11-28T08:14:39.070Z,41.48
2022-11-28T08:15:39.051Z,41.38
2022-11-28T08:16:39.072Z,41.14
2022-11-28T08:17:39.049Z,41.43
2022-11-28T08:18:39.061Z,41.22
2022-11-28T08:19:39.092Z,42.02
2022-11-28T08:20:39.049Z,42.65
2022-11-28T08:21:39.058Z,41.79
2022-11-28T08:22:39.061Z,41.38
2022-11-28T08:23:39.062Z,42.18
2022-11-28T08:24:39.073Z,41.09
2022-11-28T08:25:39.059Z,41.06
2022-11-28T08:26:39.059Z,40.93
2022-11-28T08:27:39.055Z,42.27
2022-11-28T08:28:39.066Z,42.27
2022-11-28T08:29:39.071Z,41.62
2022-11-28T08:30:39.139Z,42.7
2022-11-28T08:31:39.058Z,42.08
2022-11-28T08:32:39.062Z,41.82
2022-11-28T08:33:39.058Z,41.11
2022-11-28T08:34:39.086Z,40.68
2022-11-28T08:35:39.057Z,41.03
2022-11-28T08:36:39.069Z,40.69
2022-11-28T08:37:39.060Z,41.82
2022-11-28T08:38:39.053Z,41.48
2022-11-28T08:39:39.070Z,41.92
2022-11-28T08:40:39.058Z,41.43
2022-11-28T08:41:39.066Z,42.66
2022-11-28T08:42:39.053Z,42.17
2022-11-28T08:43:39.057Z,41.68
2022-11-28T08:44:39.100Z,40.51
2022-11-28T08:45:39.092Z,41.49
2022-11-28T08:46:39.069Z,41.91
2022-11-28T08:47:39.143Z,41.6
2022-11-28T08:48:39.063Z,42.81
2022-11-28T08:49:39.084Z,41.22
2022-11-28T08:50:42.539Z,40.62
2022-11-28T08:51:39.072Z,41.68
2022-11-28T08:52:39.072Z,41.34
2022-11-28T08:53:39.056Z,39.73
2022-11-28T08:54:39.070Z,39.31
2022-11-28T08:55:41.807Z,40.17
2022-11-28T08:56:39.066Z,41.11
2022-11-28T08:57:39.058Z,40.81
2022-11-28T08:58:39.064Z,41.06
2022-11-28T08:59:39.235Z,40.31
2022-11-28T09:00:39.061Z,40.53
2022-11-28T09:01:39.125Z,39.97
2022-11-28T09:02:39.076Z,41.1
2022-11-28T09:03:39.075Z,40.68
2022-11-28T09:04:39.067Z,40.91
2022-11-28T09:05:39.072Z,40.38
2022-11-28T09:06:39.066Z,40.38
2022-11-28T09:07:39.116Z,40.94
2022-11-28T09:08:39.066Z,40.25
2022-11-28T09:09:39.060Z,40.25
2022-11-28T09:10:39.068Z,40.32
2022-11-28T09:11:39.067Z,40.34
2022-11-28T09:12:39.057Z,40.81
2022-11-28T09:13:39.059Z,40.27
2022-11-28T09:14:39.064Z,40.17
2022-11-28T09:15:39.059Z,40.42
2022-11-28T09:16:39.151Z,39.77
2022-11-28T09:17:39.054Z,40.09
2022-11-28T09:18:39.059Z,39.37
2022-11-28T09:19:39.057Z,39.89
2022-11-28T09:20:39.066Z,39.77
2022-11-28T09:21:39.059Z,40.16
2022-11-28T09:22:39.079Z,39.63
2022-11-28T09:23:39.054Z,39.42
2022-11-28T09:24:39.050Z,39.65
2022-11-28T09:25:39.066Z,40.41
2022-11-28T09:26:39.059Z,39.61
2022-11-28T09:27:39.056Z,40
2022-11-28T09:28:39.059Z,40.05
2022-11-28T09:29:39.064Z,39.72
2022-11-28T09:30:39.107Z,39.87
2022-11-28T09:31:42.004Z,40.18
2022-11-28T09:32:39.200Z,40.56
2022-11-28T09:33:39.063Z,40.11
2022-11-28T09:34:39.051Z,40.15
2022-11-28T09:35:39.072Z,40.9
2022-11-28T09:36:39.062Z,41.43
2022-11-28T09:37:39.056Z,40.74
2022-11-28T09:38:39.053Z,40.36
2022-11-28T09:39:57.045Z,41.12
2022-11-28T09:40:39.068Z,39.99
2022-11-28T09:41:39.056Z,39.6
2022-11-28T09:42:39.066Z,40.21
2022-11-28T09:44:42.225Z,42.36
2022-11-28T09:45:40.792Z,41.2
2022-11-28T09:46:40.791Z,40.04
2022-11-28T09:47:40.708Z,40.37
2022-11-28T09:48:40.716Z,41.09
2022-11-28T09:49:41.437Z,40.44
2022-11-28T09:50:40.731Z,40.96
2022-11-28T09:51:40.730Z,40.88
2022-11-28T09:52:40.825Z,41.11
2022-11-28T09:53:40.714Z,41
2022-11-28T09:54:40.712Z,41
2022-11-28T09:55:40.826Z,40.81
2022-11-28T09:56:40.722Z,39.45
2022-11-28T09:57:40.724Z,39.48
2022-11-28T09:58:40.719Z,40.61
2022-11-28T09:59:41.090Z,41.03
2022-11-28T10:00:40.910Z,41.94
2022-11-28T10:01:40.716Z,40.95
2022-11-28T10:02:40.730Z,38.97
2022-11-28T10:03:40.841Z,40.67
2022-11-28T10:04:40.820Z,41.38
2022-11-28T10:05:40.731Z,41.06
2022-11-28T10:06:40.715Z,41.37
2022-11-28T10:07:40.760Z,41.37
2022-11-28T10:08:40.708Z,41.37
2022-11-28T10:09:40.987Z,40.24
2022-11-28T10:10:40.732Z,40.44
2022-11-28T10:11:40.714Z,39.24
2022-11-28T10:12:40.718Z,40.02
2022-11-28T10:14:05.929Z,39.34
2022-11-28T10:14:40.716Z,40.25
2022-11-28T10:15:40.802Z,40.09
2022-11-28T10:16:40.822Z,40.13
2022-11-28T10:17:40.720Z,39.33
2022-11-28T10:18:40.701Z,38.6
2022-11-28T10:19:53.718Z,38.64
2022-11-28T10:20:41.094Z,38.64
2022-11-28T10:21:40.728Z,39.9
2022-11-28T10:22:40.773Z,42.23
2022-11-28T10:23:40.709Z,41.08
2022-11-28T10:24:40.711Z,39.91
2022-11-28T10:25:40.806Z,39.91
2022-11-28T10:26:40.697Z,40.19
2022-11-28T10:27:40.688Z,40.19
2022-11-28T10:28:40.699Z,40.25
2022-11-28T10:29:41.112Z,39.88
2022-11-28T10:30:40.814Z,39.8
2022-11-28T10:31:40.695Z,39.8
2022-11-28T10:32:40.701Z,39.69
2022-11-28T10:33:40.715Z,39.24
2022-11-28T10:34:40.704Z,39.08
2022-11-28T10:35:40.725Z,40.18
2022-11-28T10:36:40.687Z,40.57
2022-11-28T10:37:40.695Z,41.01
2022-11-28T10:38:40.690Z,41.01
2022-11-28T10:39:40.826Z,40.18
2022-11-28T10:40:40.747Z,40.25
2022-11-28T10:41:40.689Z,40.17
2022-11-28T10:42:40.694Z,39.3
2022-11-28T10:43:40.696Z,39.61
2022-11-28T10:44:40.692Z,40.53
2022-11-28T10:45:40.795Z,40.55
2022-11-28T10:46:40.768Z,40.35
2022-11-28T10:47:40.728Z,40.52
2022-11-28T10:48:41.269Z,40.06
2022-11-28T10:49:41.105Z,39.73
2022-11-28T10:50:40.728Z,39.73
2022-11-28T10:51:40.719Z,40.71
2022-11-28T10:52:41.021Z,40.32
2022-11-28T10:53:40.714Z,40.34
2022-11-28T10:54:40.752Z,41.83
2022-11-28T10:55:40.784Z,40.05
2022-11-28T10:56:40.712Z,40.05
2022-11-28T10:57:40.704Z,40.32
2022-11-28T10:58:40.703Z,40.84
2022-11-28T10:59:41.000Z,40.7
2022-11-28T11:00:40.714Z,40.7
2022-11-28T11:01:42.112Z,39.75
2022-11-28T11:02:40.721Z,40.66
2022-11-28T11:03:40.709Z,40.29
2022-11-28T11:04:40.886Z,40.52
2022-11-28T11:05:40.722Z,39.25
2022-11-28T11:06:47.616Z,39.31
2022-11-28T11:07:40.756Z,38.95
2022-11-28T11:08:40.708Z,39.09
2022-11-28T11:09:41.132Z,38.87
2022-11-28T11:10:40.724Z,38.87
2022-11-28T11:11:40.703Z,38.8
2022-11-28T11:12:40.702Z,40.56
2022-11-28T11:13:40.709Z,40.02
2022-11-28T11:14:40.737Z,39.92
2022-11-28T11:15:40.768Z,39.8
2022-11-28T11:16:40.715Z,39.55
2022-11-28T11:17:40.690Z,39.66
2022-11-28T11:18:40.699Z,39.38
2022-11-28T11:19:41.504Z,38.92
2022-11-28T11:20:40.729Z,38.92
2022-11-28T11:21:40.707Z,39.46
2022-11-28T11:22:41.024Z,39.81
2022-11-28T11:23:40.711Z,39.91
2022-11-28T11:24:40.714Z,40.22
2022-11-28T11:25:40.716Z,40.18
2022-11-28T11:26:40.710Z,39.11
2022-11-28T11:27:40.705Z,39.38
2022-11-28T11:28:40.739Z,40.15
2022-11-28T11:29:41.220Z,39.61
2022-11-28T11:30:40.768Z,39.61
2022-11-28T11:31:40.704Z,40.91
2022-11-28T11:32:40.706Z,39.81
2022-11-28T11:33:40.691Z,38.74
2022-11-28T11:34:40.699Z,38.92
2022-11-28T11:35:40.722Z,39.78
2022-11-28T11:36:40.821Z,39.34
2022-11-28T11:37:40.692Z,39.51
2022-11-28T11:38:40.695Z,39.91
2022-11-28T11:39:41.154Z,39.79
2022-11-28T11:40:40.754Z,40.44
2022-11-28T11:41:40.696Z,39.71
2022-11-28T11:42:40.696Z,39.02
2022-11-28T11:43:40.705Z,38.49
2022-11-28T11:44:40.895Z,39.32
2022-11-28T11:45:40.730Z,39.31
2022-11-28T11:46:40.866Z,40.36
2022-11-28T11:47:40.959Z,40.66
2022-11-28T11:48:40.689Z,40.27
2022-11-28T11:49:41.034Z,40.77
2022-11-28T11:50:40.708Z,39.37
2022-11-28T11:51:40.720Z,40.72
2022-11-28T11:52:41.125Z,40.24
2022-11-28T11:53:40.722Z,41.13
2022-11-28T11:54:40.708Z,40.57
2022-11-28T11:55:40.722Z,39.46
2022-11-28T11:56:40.785Z,38.67
2022-11-28T11:57:41.099Z,38.53
2022-11-28T11:58:40.708Z,38.42
2022-11-28T11:59:41.070Z,39.44
2022-11-28T12:00:40.730Z,39.44
2022-11-28T12:01:40.702Z,40.35
2022-11-28T12:02:41.129Z,40.12
2022-11-28T12:03:40.934Z,39.98
2022-11-28T12:04:47.125Z,39.78
2022-11-28T12:06:06.201Z,39.4
2022-11-28T12:06:40.715Z,39.4
2022-11-28T12:07:41.067Z,38.22
2022-11-28T12:08:40.703Z,40.33
2022-11-28T12:09:40.700Z,39.11
2022-11-28T12:10:40.736Z,39.11
2022-11-28T12:11:45.627Z,39.29
2022-11-28T12:12:40.718Z,39.29
2022-11-28T12:13:40.699Z,38.64
2022-11-28T12:14:40.706Z,38.7
2022-11-28T12:15:40.784Z,39.48
2022-11-28T12:16:40.783Z,39.32
2022-11-28T12:17:48.925Z,39.68
2022-11-28T12:18:40.708Z,39.24
2022-11-28T12:19:40.709Z,38.69
2022-11-28T12:20:40.719Z,38.69
2022-11-28T12:21:40.709Z,38.73
2022-11-28T12:22:40.700Z,38.15
2022-11-28T12:23:40.715Z,38.17
2022-11-28T12:24:40.712Z,38.38
2022-11-28T12:25:40.721Z,37.93
2022-11-28T12:26:40.694Z,38.35
2022-11-28T12:27:40.717Z,38.63
2022-11-28T12:28:40.719Z,38.7
2022-11-28T12:29:40.712Z,38.81
2022-11-28T12:30:43.433Z,38.81
2022-11-28T12:31:40.779Z,39.45
2022-11-28T12:32:40.699Z,39.11
2022-11-28T12:33:40.721Z,39.1
2022-11-28T12:34:40.716Z,39.22
2022-11-28T12:35:40.711Z,39.22
2022-11-28T12:36:40.705Z,39.19
2022-11-28T12:38:03.018Z,39.19
2022-11-28T12:38:40.689Z,38.27
2022-11-28T12:39:40.748Z,38.95
2022-11-28T12:40:40.729Z,39.4
2022-11-28T12:41:40.793Z,39.35
2022-11-28T12:42:40.772Z,38.94
2022-11-28T12:43:40.701Z,38.63
2022-11-28T12:44:40.693Z,38.93
2022-11-28T12:45:40.698Z,38.1
2022-11-28T12:46:40.797Z,38.37
2022-11-28T12:47:40.681Z,38.67
2022-11-28T12:48:40.696Z,40.03
2022-11-28T12:49:40.691Z,39.38
2022-11-28T12:50:40.738Z,38.82
2022-11-28T12:51:40.697Z,39.06
2022-11-28T12:52:40.691Z,38.78
2022-11-28T12:53:40.707Z,39.23
2022-11-28T12:54:40.696Z,38.57
2022-11-28T12:55:40.719Z,38.26
2022-11-28T12:56:40.727Z,38.02